Amarillo, TX (79101)

2:08 PM CST on December 08, 2016 (GMT -0600)
Plemons-Eakle | | Change Station

Elev 3678 ft 35.19 °N, 101.84 °W | Updated 2 seconds ago

Overcast
Overcast
24.7 °F
Feels Like 25 °F
N
0.5
Wind Variable Wind from NE
Gusts 5.8 mph

Today
High -- | Low -- °F
--% Chance of Precip.
Yesterday
High -- | Low -- °F
Precip. -- in
Pressure 30.64 in
Visibility 10.0 miles
Clouds Overcast 6000 ft
Windchill 25 °F
Dew Point 9 °F
Humidity 50%
Rainfall 0.00 in
Snow Depth Not available.
7:43 AM 5:35 PM
Waxing Gibbous, 66% visible
METAR KAMA 081953Z 07005KT 10SM OVC060 M04/M14 A3054 RMK AO2 SLP374 T10391144
Pressure 30.64 in
Visibility 10.0 miles
Clouds Overcast 6000 ft
Windchill 25 °F
Dew Point 9 °F
Humidity 50%
Rainfall 0.00 in
Snow Depth Not available.
7:43 AM 5:35 PM
Waxing Gibbous, 66% visible
METAR KAMA 081953Z 07005KT 10SM OVC060 M04/M14 A3054 RMK AO2 SLP374 T10391144

10-Day Weather Forecast

Almanac

Astronomy

Dec. 08, 2016 Rise Set
Actual Time
Civil Twilight
Nautical Twilight
Astronomical Twilight
Moon
Length of Visible Light
Length of Day
Tomorrow will be .
, % of the Moon is Illuminated

Today's Extremes

State Highs State Lows

Community

WunderPhotos

Upload Photos

1,956,277 photos uploaded!

WunderBlog® & News

Nearby

Air Quality

  Air Quality AQ Index Pollutant
Not available.

Snow Depth

Station Depth Elevation

Earthquake Activity

City Distance Mag. Time & Date
Minimum magnitude displayed is 2.5.

Coastal Water Temperatures

Place Temperature

Stations

Nearby Weather Stations

Station Location Temp. Windchill Dew Point Humidity Wind Precip. Elev Updated Type
                   

Watches & Warnings

There are currently no watches in effect.